Time,TemperatureF,DewpointF,PressureIn,WindDirection,WindDirectionDegrees,WindSpeedMPH,WindSpeedGustMPH,Humidity,HourlyPrecipIn,Conditions,Clouds,dailyrainin,SoftwareType,DateUTC
2013-03-09 00:00:00,32.0,25.6,30.27,NNE,32,0.0,0.0,77,0.00,,---,0.00,VWS V14.01,2013-03-09 05:00:00,
2013-03-09 00:01:00,32.1,25.7,30.27,NNE,32,0.0,0.0,77,0.00,,---,0.00,VWS V14.01,2013-03-09 05:01:00,
2013-03-09 00:05:00,29.6,24.5,30.29,South,178,0.0,2.0,81,0.00,,---,0.00,VWS V14.01,2013-03-09 05:05:00,
2013-03-09 00:06:00,32.2,25.2,30.27,NNE,32,0.0,0.0,75,0.00,,---,0.00,VWS V14.01,2013-03-09 05:06:00,
2013-03-09 00:10:00,29.5,24.4,30.29,South,178,0.0,2.0,81,0.00,,---,0.00,VWS V14.01,2013-03-09 05:10:00,
2013-03-09 00:11:00,31.6,24.6,30.27,West,275,5.0,6.0,75,0.00,,---,0.00,VWS V14.01,2013-03-09 05:11:00,
2013-03-09 00:15:00,29.1,24.0,30.29,South,178,1.0,2.0,81,0.00,,---,0.00,VWS V14.01,2013-03-09 05:15:00,
2013-03-09 00:16:00,31.0,25.3,30.27,SSW,205,3.0,5.0,79,0.00,,---,0.00,VWS V14.01,2013-03-09 05:16:00,
2013-03-09 00:20:00,28.7,23.9,30.29,South,178,0.0,1.0,82,0.00,,---,0.00,VWS V14.01,2013-03-09 05:20:00,
2013-03-09 00:21:00,30.5,25.1,30.27,SSW,206,3.0,4.0,80,0.00,,---,0.00,VWS V14.01,2013-03-09 05:21:00,
2013-03-09 00:25:00,28.8,24.3,30.29,SSE,168,4.0,5.0,83,0.00,,---,0.00,VWS V14.01,2013-03-09 05:25:00,
2013-03-09 00:26:00,30.5,25.4,30.28,SSW,205,3.0,5.0,81,0.00,,---,0.00,VWS V14.01,2013-03-09 05:26:00,
2013-03-09 00:30:00,29.1,24.9,30.29,SSE,168,1.0,4.0,84,0.00,,---,0.00,VWS V14.01,2013-03-09 05:30:00,
2013-03-09 00:31:00,30.6,25.5,30.28,SSW,204,0.0,7.0,81,0.00,,---,0.00,VWS V14.01,2013-03-09 05:31:00,
2013-03-09 00:35:00,29.3,24.8,30.30,South,186,0.0,5.0,83,0.00,,---,0.00,VWS V14.01,2013-03-09 05:35:00,
2013-03-09 00:36:00,30.6,25.5,30.28,South,173,2.0,6.0,81,0.00,,---,0.00,VWS V14.01,2013-03-09 05:36:00,
2013-03-09 00:40:00,29.7,25.2,30.30,SSW,211,4.0,7.0,83,0.00,,---,0.00,VWS V14.01,2013-03-09 05:40:00,
2013-03-09 00:41:00,30.8,25.4,30.29,South,178,0.0,6.0,80,0.00,,---,0.00,VWS V14.01,2013-03-09 05:41:00,
2013-03-09 00:45:00,29.6,24.8,30.30,SW,215,4.0,5.0,82,0.00,,---,0.00,VWS V14.01,2013-03-09 05:45:00,
2013-03-09 00:46:00,30.7,25.3,30.29,South,178,4.0,5.0,80,0.00,,---,0.00,VWS V14.01,2013-03-09 05:46:00,
2013-03-09 00:50:00,29.4,24.9,30.30,SW,215,1.0,4.0,83,0.00,,---,0.00,VWS V14.01,2013-03-09 05:50:00,
2013-03-09 00:51:00,30.8,25.4,30.29,South,179,0.0,4.0,80,0.00,,---,0.00,VWS V14.01,2013-03-09 05:51:00,
2013-03-09 00:55:00,29.2,24.7,30.29,SW,215,3.0,3.0,83,0.00,,---,0.00,VWS V14.01,2013-03-09 05:55:00,
2013-03-09 00:56:00,30.1,24.4,30.29,South,179,4.0,4.0,79,0.00,,---,0.00,VWS V14.01,2013-03-09 05:56:00,
2013-03-09 01:00:00,29.0,24.8,30.30,SW,215,0.0,3.0,84,0.00,,---,0.00,VWS V14.01,2013-03-09 06:00:00,
2013-03-09 01:01:00,29.6,24.2,30.29,South,178,0.0,2.0,80,0.00,,---,0.00,VWS V14.01,2013-03-09 06:01:00,
2013-03-09 01:05:00,28.9,24.7,30.30,SW,215,2.0,3.0,84,0.00,,---,0.00,VWS V14.01,2013-03-09 06:05:00,
2013-03-09 01:06:00,29.6,24.5,30.29,South,178,0.0,2.0,81,0.00,,---,0.00,VWS V14.01,2013-03-09 06:06:00,
2013-03-09 01:10:00,29.0,24.8,30.30,SSW,213,0.0,4.0,84,0.00,,---,0.00,VWS V14.01,2013-03-09 06:10:00,
2013-03-09 01:11:00,29.3,24.2,30.29,South,178,0.0,0.0,81,0.00,,---,0.00,VWS V14.01,2013-03-09 06:11:00,
2013-03-09 01:15:00,28.5,24.0,30.30,SSW,213,0.0,2.0,83,0.00,,---,0.00,VWS V14.01,2013-03-09 06:15:00,
2013-03-09 01:16:00,28.7,23.6,30.29,South,178,0.0,1.0,81,0.00,,---,0.00,VWS V14.01,2013-03-09 06:16:00,
2013-03-09 01:20:00,28.7,24.5,30.30,SSW,207,0.0,4.0,84,0.00,,---,0.00,VWS V14.01,2013-03-09 06:20:00,
2013-03-09 01:21:00,28.7,24.2,30.29,SSE,166,5.0,5.0,83,0.00,,---,0.00,VWS V14.01,2013-03-09 06:21:00,
2013-03-09 01:25:00,28.1,23.6,30.29,SSW,207,0.0,0.0,83,0.00,,---,0.00,VWS V14.01,2013-03-09 06:25:00,
2013-03-09 01:26:00,29.0,24.8,30.29,SSE,168,1.0,4.0,84,0.00,,---,0.00,VWS V14.01,2013-03-09 06:26:00,
2013-03-09 01:30:00,27.8,23.3,30.29,SSW,207,0.0,0.0,83,0.00,,---,0.00,VWS V14.01,2013-03-09 06:30:00,
2013-03-09 01:31:00,29.3,24.8,30.30,South,177,2.0,5.0,83,0.00,,---,0.00,VWS V14.01,2013-03-09 06:31:00,
2013-03-09 01:35:00,27.8,23.6,30.29,SSW,207,0.0,3.0,84,0.00,,---,0.00,VWS V14.01,2013-03-09 06:35:00,
2013-03-09 01:36:00,29.6,25.4,30.30,SSW,211,4.0,7.0,84,0.00,,---,0.00,VWS V14.01,2013-03-09 06:36:00,
2013-03-09 01:40:00,27.8,23.6,30.29,SSW,207,0.0,0.0,84,0.00,,---,0.00,VWS V14.01,2013-03-09 06:40:00,
2013-03-09 01:41:00,29.6,24.8,30.30,SW,214,4.0,5.0,82,0.00,,---,0.00,VWS V14.01,2013-03-09 06:41:00,
2013-03-09 01:45:00,27.7,23.8,30.29,SSW,208,3.0,4.0,85,0.00,,---,0.00,VWS V14.01,2013-03-09 06:45:00,
2013-03-09 01:46:00,29.4,24.9,30.30,SW,215,2.0,4.0,83,0.00,,---,0.00,VWS V14.01,2013-03-09 06:46:00,
2013-03-09 01:50:00,27.8,23.9,30.28,SSW,211,4.0,4.0,85,0.00,,---,0.00,VWS V14.01,2013-03-09 06:50:00,
2013-03-09 01:51:00,29.2,24.7,30.30,SW,215,0.0,1.0,83,0.00,,---,0.00,VWS V14.01,2013-03-09 06:51:00,
2013-03-09 01:55:00,27.8,24.2,30.28,SSW,211,2.0,4.0,86,0.00,,---,0.00,VWS V14.01,2013-03-09 06:55:00,
2013-03-09 01:56:00,29.1,24.9,30.30,SW,215,0.0,3.0,84,0.00,,---,0.00,VWS V14.01,2013-03-09 06:56:00,
2013-03-09 02:00:00,27.6,24.0,30.29,SSW,211,0.0,2.0,86,0.00,,---,0.00,VWS V14.01,2013-03-09 07:00:00,
2013-03-09 02:01:00,28.9,24.7,30.30,SW,215,0.0,3.0,84,0.00,,---,0.00,VWS V14.01,2013-03-09 07:01:00,
2013-03-09 02:05:00,27.5,23.9,30.28,SSW,211,0.0,3.0,86,0.00,,---,0.00,VWS V14.01,2013-03-09 07:05:00,
2013-03-09 02:06:00,29.0,24.8,30.30,SSW,213,2.0,4.0,84,0.00,,---,0.00,VWS V14.01,2013-03-09 07:06:00,
2013-03-09 02:10:00,27.4,24.0,30.28,SSW,211,0.0,1.0,87,0.00,,---,0.00,VWS V14.01,2013-03-09 07:10:00,
2013-03-09 02:11:00,28.6,24.1,30.30,SSW,213,0.0,2.0,83,0.00,,---,0.00,VWS V14.01,2013-03-09 07:11:00,
2013-03-09 02:15:00,27.4,24.0,30.28,SSW,211,0.0,3.0,87,0.00,,---,0.00,VWS V14.01,2013-03-09 07:15:00,
2013-03-09 02:16:00,28.8,24.6,30.30,SSW,207,0.0,4.0,84,0.00,,---,0.00,VWS V14.01,2013-03-09 07:16:00,
2013-03-09 02:20:00,27.1,23.5,30.28,SSW,211,0.0,1.0,86,0.00,,---,0.00,VWS V14.01,2013-03-09 07:20:00,
2013-03-09 02:21:00,28.3,23.5,30.30,SSW,207,0.0,0.0,82,0.00,,---,0.00,VWS V14.01,2013-03-09 07:21:00,
2013-03-09 02:25:00,27.1,23.5,30.28,SSW,211,1.0,3.0,86,0.00,,---,0.00,VWS V14.01,2013-03-09 07:25:00,
2013-03-09 02:26:00,28.0,23.5,30.29,SSW,207,0.0,0.0,83,0.00,,---,0.00,VWS V14.01,2013-03-09 07:26:00,
2013-03-09 02:30:00,26.7,23.1,30.28,SSW,211,0.0,1.0,86,0.00,,---,0.00,VWS V14.01,2013-03-09 07:30:00,
2013-03-09 02:31:00,27.7,23.5,30.29,SSW,207,2.0,3.0,84,0.00,,---,0.00,VWS V14.01,2013-03-09 07:31:00,
2013-03-09 02:35:00,26.5,22.9,30.28,SSW,211,1.0,2.0,86,0.00,,---,0.00,VWS V14.01,2013-03-09 07:35:00,
2013-03-09 02:36:00,27.8,23.9,30.29,SSW,207,0.0,0.0,85,0.00,,---,0.00,VWS V14.01,2013-03-09 07:36:00,
2013-03-09 02:40:00,26.6,23.3,30.28,SSW,211,0.0,3.0,87,0.00,,---,0.00,VWS V14.01,2013-03-09 07:40:00,
2013-03-09 02:41:00,27.7,23.8,30.29,SSW,207,3.0,3.0,85,0.00,,---,0.00,VWS V14.01,2013-03-09 07:41:00,
2013-03-09 02:45:00,26.6,23.3,30.28,SSW,211,0.0,3.0,87,0.00,,---,0.00,VWS V14.01,2013-03-09 07:45:00,
2013-03-09 02:46:00,27.8,23.9,30.28,SSW,210,2.0,4.0,85,0.00,,---,0.00,VWS V14.01,2013-03-09 07:46:00,
2013-03-09 02:50:00,27.8,24.2,30.28,SSW,211,3.0,4.0,86,0.00,,---,0.00,VWS V14.01,2013-03-09 07:50:00,
2013-03-09 02:55:00,27.7,24.1,30.28,SSW,211,0.0,2.0,86,0.00,,---,0.00,VWS V14.01,2013-03-09 07:55:00,
2013-03-09 03:00:00,27.5,23.9,30.29,SSW,211,1.0,3.0,86,0.00,,---,0.00,VWS V14.01,2013-03-09 08:00:00,
2013-03-09 03:05:00,27.4,23.8,30.28,SSW,211,0.0,1.0,86,0.00,,---,0.00,VWS V14.01,2013-03-09 08:05:00,
2013-03-09 03:10:00,27.4,24.0,30.28,SSW,211,0.0,3.0,87,0.00,,---,0.00,VWS V14.01,2013-03-09 08:10:00,
2013-03-09 03:15:00,27.2,23.6,30.28,SSW,211,0.0,1.0,86,0.00,,---,0.00,VWS V14.01,2013-03-09 08:15:00,
2013-03-09 03:20:00,27.0,23.4,30.28,SSW,211,1.0,1.0,86,0.00,,---,0.00,VWS V14.01,2013-03-09 08:20:00,
2013-03-09 03:25:00,26.8,23.2,30.28,SSW,211,0.0,1.0,86,0.00,,---,0.00,VWS V14.01,2013-03-09 08:25:00,
2013-03-09 03:30:00,26.6,23.0,30.28,SSW,211,0.0,0.0,86,0.00,,---,0.00,VWS V14.01,2013-03-09 08:30:00,
2013-03-09 03:35:00,26.6,23.3,30.28,SSW,211,0.0,3.0,87,0.00,,---,0.00,VWS V14.01,2013-03-09 08:35:00,
2013-03-09 03:40:00,26.6,23.3,30.28,SSW,211,0.0,3.0,87,0.00,,---,0.00,VWS V14.01,2013-03-09 08:40:00,
2013-03-09 03:45:00,26.5,23.2,30.28,SSW,211,1.0,1.0,87,0.00,,---,0.00,VWS V14.01,2013-03-09 08:45:00,
2013-03-09 03:50:00,26.8,23.5,30.28,SSW,211,0.0,0.0,87,0.00,,---,0.00,VWS V14.01,2013-03-09 08:50:00,
2013-03-09 03:55:00,26.6,23.3,30.28,SSW,211,0.0,3.0,87,0.00,,---,0.00,VWS V14.01,2013-03-09 08:55:00,
2013-03-09 04:00:00,26.5,23.2,30.28,SSW,211,0.0,2.0,87,0.00,,---,0.00,VWS V14.01,2013-03-09 09:00:00,
2013-03-09 04:05:00,26.6,23.3,30.29,SSW,211,1.0,1.0,87,0.00,,---,0.00,VWS V14.01,2013-03-09 09:05:00,
2013-03-09 04:10:00,26.4,23.1,30.29,SSW,211,0.0,2.0,87,0.00,,---,0.00,VWS V14.01,2013-03-09 09:10:00,
2013-03-09 04:15:00,26.2,22.9,30.29,SSW,211,0.0,0.0,87,0.00,,---,0.00,VWS V14.01,2013-03-09 09:15:00,
2013-03-09 04:20:00,26.1,22.8,30.29,SSW,211,2.0,2.0,87,0.00,,---,0.00,VWS V14.01,2013-03-09 09:20:00,
2013-03-09 04:25:00,26.1,22.8,30.29,SSW,211,0.0,1.0,87,0.00,,---,0.00,VWS V14.01,2013-03-09 09:25:00,
2013-03-09 04:30:00,26.1,22.8,30.29,SSW,211,0.0,3.0,87,0.00,,---,0.00,VWS V14.01,2013-03-09 09:30:00,
2013-03-09 04:35:00,25.9,22.6,30.29,SSW,211,1.0,2.0,87,0.00,,---,0.00,VWS V14.01,2013-03-09 09:35:00,
2013-03-09 04:40:00,25.8,22.7,30.29,SSW,211,0.0,3.0,88,0.00,,---,0.00,VWS V14.01,2013-03-09 09:40:00,
2013-03-09 04:45:00,25.7,22.6,30.29,SSW,211,0.0,3.0,88,0.00,,---,0.00,VWS V14.01,2013-03-09 09:45:00,
2013-03-09 04:50:00,25.6,22.5,30.29,SSW,211,0.0,1.0,88,0.00,,---,0.00,VWS V14.01,2013-03-09 09:50:00,
2013-03-09 04:55:00,25.5,22.5,30.29,SSW,211,0.0,1.0,88,0.00,,---,0.00,VWS V14.01,2013-03-09 09:55:00,
2013-03-09 05:00:00,25.6,22.5,30.29,SSW,211,0.0,2.0,88,0.00,,---,0.00,VWS V14.01,2013-03-09 10:00:00,
2013-03-09 05:05:00,25.6,22.5,30.29,SSW,211,0.0,2.0,88,0.00,,---,0.00,VWS V14.01,2013-03-09 10:05:00,
2013-03-09 05:10:00,25.4,22.4,30.29,SSW,211,0.0,0.0,88,0.00,,---,0.00,VWS V14.01,2013-03-09 10:10:00,
2013-03-09 05:15:00,24.9,21.9,30.30,SSW,211,0.0,3.0,88,0.00,,---,0.00,VWS V14.01,2013-03-09 10:15:00,
2013-03-09 05:20:00,24.9,21.9,30.30,SSW,211,2.0,3.0,88,0.00,,---,0.00,VWS V14.01,2013-03-09 10:20:00,
2013-03-09 05:25:00,25.1,22.0,30.29,SSW,211,1.0,2.0,88,0.00,,---,0.00,VWS V14.01,2013-03-09 10:25:00,
2013-03-09 05:30:00,25.0,22.0,30.30,SSW,211,1.0,3.0,88,0.00,,---,0.00,VWS V14.01,2013-03-09 10:30:00,
2013-03-09 05:35:00,25.0,22.0,30.30,SSW,211,0.0,0.0,88,0.00,,---,0.00,VWS V14.01,2013-03-09 10:35:00,
2013-03-09 05:40:00,25.0,22.2,30.30,SSW,211,0.0,0.0,89,0.00,,---,0.00,VWS V14.01,2013-03-09 10:40:00,
2013-03-09 05:45:00,24.6,21.6,30.30,SSW,211,0.0,0.0,88,0.00,,---,0.00,VWS V14.01,2013-03-09 10:45:00,
2013-03-09 05:50:00,24.4,21.6,30.30,SSW,211,0.0,1.0,89,0.00,,---,0.00,VWS V14.01,2013-03-09 10:50:00,
2013-03-09 05:55:00,24.4,21.6,30.30,SSW,211,2.0,2.0,89,0.00,,---,0.00,VWS V14.01,2013-03-09 10:55:00,
2013-03-09 06:00:00,24.4,21.6,30.30,SSW,211,3.0,3.0,89,0.00,,---,0.00,VWS V14.01,2013-03-09 11:00:00,
2013-03-09 06:05:00,24.4,21.6,30.31,SSW,211,1.0,3.0,89,0.00,,---,0.00,VWS V14.01,2013-03-09 11:05:00,
2013-03-09 06:10:00,24.3,21.5,30.31,SSW,211,1.0,3.0,89,0.00,,---,0.00,VWS V14.01,2013-03-09 11:10:00,
2013-03-09 06:15:00,24.3,21.5,30.31,SSW,202,0.0,4.0,89,0.00,,---,0.00,VWS V14.01,2013-03-09 11:15:00,
2013-03-09 06:20:00,24.3,21.5,30.31,SSW,200,0.0,3.0,89,0.00,,---,0.00,VWS V14.01,2013-03-09 11:20:00,
2013-03-09 06:25:00,24.1,21.3,30.31,SSW,200,1.0,3.0,89,0.00,,---,0.00,VWS V14.01,2013-03-09 11:25:00,
2013-03-09 06:30:00,23.9,21.1,30.31,SSW,200,0.0,3.0,89,0.00,,---,0.00,VWS V14.01,2013-03-09 11:30:00,
2013-03-09 06:35:00,23.8,21.0,30.31,SSW,200,0.0,1.0,89,0.00,,---,0.00,VWS V14.01,2013-03-09 11:35:00,
2013-03-09 06:40:00,23.7,20.9,30.31,SSW,200,3.0,3.0,89,0.00,,---,0.00,VWS V14.01,2013-03-09 11:40:00,
2013-03-09 06:45:00,23.7,20.9,30.31,SSW,200,0.0,2.0,89,0.00,,---,0.00,VWS V14.01,2013-03-09 11:45:00,
2013-03-09 06:50:00,23.7,21.2,30.31,SSW,200,3.0,3.0,90,0.00,,---,0.00,VWS V14.01,2013-03-09 11:50:00,
2013-03-09 06:55:00,23.9,21.4,30.31,SSW,200,2.0,3.0,90,0.00,,---,0.00,VWS V14.01,2013-03-09 11:55:00,
2013-03-09 07:00:00,23.9,21.4,30.31,SSW,200,0.0,1.0,90,0.00,,---,0.00,VWS V14.01,2013-03-09 12:00:00,
2013-03-09 07:05:00,23.8,21.3,30.31,SSW,200,0.0,2.0,90,0.00,,---,0.00,VWS V14.01,2013-03-09 12:05:00,
2013-03-09 07:10:00,23.8,21.3,30.31,SSW,200,3.0,3.0,90,0.00,,---,0.00,VWS V14.01,2013-03-09 12:10:00,
2013-03-09 07:15:00,23.9,21.4,30.32,SSW,200,3.0,3.0,90,0.00,,---,0.00,VWS V14.01,2013-03-09 12:15:00,
2013-03-09 07:20:00,24.1,21.6,30.32,SSW,201,0.0,3.0,90,0.00,,---,0.00,VWS V14.01,2013-03-09 12:20:00,
2013-03-09 07:25:00,24.5,22.0,30.32,SSW,201,0.0,3.0,90,0.00,,---,0.00,VWS V14.01,2013-03-09 12:25:00,
2013-03-09 07:30:00,25.1,22.6,30.32,SSW,199,0.0,2.0,90,0.00,,---,0.00,VWS V14.01,2013-03-09 12:30:00,
2013-03-09 07:35:00,25.8,23.3,30.32,SSW,192,5.0,5.0,90,0.00,,---,0.00,VWS V14.01,2013-03-09 12:35:00,
2013-03-09 07:40:00,26.5,24.0,30.32,South,188,1.0,5.0,90,0.00,,---,0.00,VWS V14.01,2013-03-09 12:40:00,
2013-03-09 07:45:00,26.9,23.8,30.33,South,188,0.0,2.0,88,0.00,,---,0.00,VWS V14.01,2013-03-09 12:45:00,
2013-03-09 07:50:00,27.3,24.2,30.33,South,190,0.0,4.0,88,0.00,,---,0.00,VWS V14.01,2013-03-09 12:50:00,
2013-03-09 07:55:00,27.7,24.3,30.32,South,190,1.0,2.0,87,0.00,,---,0.00,VWS V14.01,2013-03-09 12:55:00,
2013-03-09 08:00:00,27.8,24.2,30.33,SSW,192,4.0,4.0,86,0.00,,---,0.00,VWS V14.01,2013-03-09 13:00:00,
2013-03-09 08:05:00,27.8,24.2,30.33,SSW,201,3.0,4.0,86,0.00,,---,0.00,VWS V14.01,2013-03-09 13:05:00,
2013-03-09 08:10:00,28.1,26.1,30.33,SSW,207,2.0,5.0,92,0.00,,---,0.00,VWS V14.01,2013-03-09 13:10:00,
2013-03-09 08:15:00,28.4,24.5,30.33,SSW,207,4.0,4.0,85,0.00,,---,0.00,VWS V14.01,2013-03-09 13:15:00,
2013-03-09 08:20:00,28.9,25.0,30.34,SSW,204,0.0,5.0,85,0.00,,---,0.00,VWS V14.01,2013-03-09 13:20:00,
2013-03-09 08:25:00,29.3,25.1,30.34,SSW,203,1.0,5.0,84,0.00,,---,0.00,VWS V14.01,2013-03-09 13:25:00,
2013-03-09 08:30:00,29.8,25.3,30.34,SSW,204,0.0,3.0,83,0.00,,---,0.00,VWS V14.01,2013-03-09 13:30:00,
2013-03-09 08:35:00,30.0,25.2,30.34,SSW,204,0.0,3.0,82,0.00,,---,0.00,VWS V14.01,2013-03-09 13:35:00,
2013-03-09 08:40:00,30.4,25.3,30.34,SSW,203,2.0,3.0,81,0.00,,---,0.00,VWS V14.01,2013-03-09 13:40:00,
2013-03-09 08:45:00,30.5,25.4,30.34,SSW,202,0.0,4.0,81,0.00,,---,0.00,VWS V14.01,2013-03-09 13:45:00,
2013-03-09 08:50:00,31.0,25.9,30.34,SSW,200,0.0,4.0,81,0.00,,---,0.00,VWS V14.01,2013-03-09 13:50:00,
2013-03-09 08:55:00,31.5,26.0,30.34,SSW,202,3.0,5.0,80,0.00,,---,0.00,VWS V14.01,2013-03-09 13:55:00,
2013-03-09 09:00:00,31.9,26.1,30.34,SSW,196,0.0,5.0,79,0.00,,---,0.00,VWS V14.01,2013-03-09 14:00:00,
2013-03-09 09:05:00,32.3,26.2,30.34,SSW,200,0.0,4.0,78,0.00,,---,0.00,VWS V14.01,2013-03-09 14:05:00,
2013-03-09 09:10:00,32.7,26.3,30.34,SSW,194,0.0,5.0,77,0.00,,---,0.00,VWS V14.01,2013-03-09 14:10:00,
2013-03-09 09:15:00,33.4,26.7,30.35,SSE,166,4.0,7.0,76,0.00,,---,0.00,VWS V14.01,2013-03-09 14:15:00,
2013-03-09 09:20:00,33.9,26.8,30.35,South,187,5.0,6.0,75,0.00,,---,0.00,VWS V14.01,2013-03-09 14:20:00,
2013-03-09 09:25:00,34.4,27.0,30.34,SSE,163,1.0,6.0,74,0.00,,---,0.00,VWS V14.01,2013-03-09 14:25:00,
2013-03-09 09:30:00,34.8,27.0,30.34,South,169,0.0,5.0,73,0.00,,---,0.00,VWS V14.01,2013-03-09 14:30:00,
2013-03-09 09:35:00,35.4,27.6,30.34,SSE,158,2.0,5.0,73,0.00,,---,0.00,VWS V14.01,2013-03-09 14:35:00,
2013-03-09 09:40:00,35.8,27.3,30.34,SSE,159,4.0,4.0,71,0.00,,---,0.00,VWS V14.01,2013-03-09 14:40:00,
2013-03-09 09:45:00,36.2,27.4,30.34,SSE,159,2.0,5.0,70,0.00,,---,0.00,VWS V14.01,2013-03-09 14:45:00,
2013-03-09 09:50:00,36.6,27.8,30.34,SSE,159,0.0,1.0,70,0.00,,---,0.00,VWS V14.01,2013-03-09 14:50:00,
2013-03-09 09:55:00,37.1,27.9,30.34,SSE,160,0.0,5.0,69,0.00,,---,0.00,VWS V14.01,2013-03-09 14:55:00,
2013-03-09 10:00:00,37.3,28.1,30.34,SSE,160,0.0,2.0,69,0.00,,---,0.00,VWS V14.01,2013-03-09 15:00:00,
2013-03-09 10:05:00,37.8,28.2,30.34,SSE,160,1.0,4.0,68,0.00,,---,0.00,VWS V14.01,2013-03-09 15:05:00,
2013-03-09 10:10:00,38.2,27.9,30.33,SSE,159,0.0,4.0,66,0.00,,---,0.00,VWS V14.01,2013-03-09 15:10:00,
2013-03-09 10:15:00,38.4,28.0,30.33,SSE,159,2.0,5.0,66,0.00,,---,0.00,VWS V14.01,2013-03-09 15:15:00,
2013-03-09 10:20:00,38.9,27.8,30.33,SSE,161,0.0,5.0,64,0.00,,---,0.00,VWS V14.01,2013-03-09 15:20:00,
2013-03-09 10:25:00,39.6,28.1,30.33,SSE,161,2.0,2.0,63,0.00,,---,0.00,VWS V14.01,2013-03-09 15:25:00,
2013-03-09 10:30:00,38.8,27.7,30.33,SSE,161,0.0,0.0,64,0.00,,---,0.00,VWS V14.01,2013-03-09 15:30:00,
2013-03-09 10:35:00,38.9,27.4,30.33,South,170,0.0,4.0,63,0.00,,---,0.00,VWS V14.01,2013-03-09 15:35:00,
2013-03-09 10:40:00,39.1,28.0,30.33,South,170,0.0,0.0,64,0.00,,---,0.00,VWS V14.01,2013-03-09 15:40:00,
2013-03-09 10:45:00,39.7,27.8,30.33,South,170,0.0,0.0,62,0.00,,---,0.00,VWS V14.01,2013-03-09 15:45:00,
2013-03-09 10:50:00,40.4,28.8,30.33,South,170,0.0,0.0,63,0.00,,---,0.00,VWS V14.01,2013-03-09 15:50:00,
2013-03-09 10:55:00,40.9,29.3,30.32,South,170,1.0,1.0,63,0.00,,---,0.00,VWS V14.01,2013-03-09 15:55:00,
2013-03-09 11:00:00,41.8,29.8,30.33,SSE,166,4.0,4.0,62,0.00,,---,0.00,VWS V14.01,2013-03-09 16:00:00,
2013-03-09 11:05:00,42.0,29.1,30.33,SSE,165,2.0,4.0,60,0.00,,---,0.00,VWS V14.01,2013-03-09 16:05:00,
2013-03-09 11:10:00,42.4,29.1,30.33,SSE,166,2.0,4.0,59,0.00,,---,0.00,VWS V14.01,2013-03-09 16:10:00,
2013-03-09 11:15:00,42.8,29.5,30.32,SSE,151,2.0,7.0,59,0.00,,---,0.00,VWS V14.01,2013-03-09 16:15:00,
2013-03-09 11:20:00,42.7,29.4,30.32,SSE,148,6.0,7.0,59,0.00,,---,0.00,VWS V14.01,2013-03-09 16:20:00,
2013-03-09 11:25:00,43.3,29.1,30.32,SSE,149,5.0,6.0,57,0.00,,---,0.00,VWS V14.01,2013-03-09 16:25:00,
2013-03-09 11:30:00,43.8,28.7,30.33,SSE,149,0.0,4.0,55,0.00,,---,0.00,VWS V14.01,2013-03-09 16:30:00,
2013-03-09 11:35:00,43.9,27.9,30.32,SSE,149,0.0,1.0,53,0.00,,---,0.00,VWS V14.01,2013-03-09 16:35:00,
2013-03-09 11:40:00,44.0,28.4,30.32,SSE,149,0.0,2.0,54,0.00,,---,0.00,VWS V14.01,2013-03-09 16:40:00,
2013-03-09 11:45:00,44.1,26.7,30.32,South,178,2.0,4.0,50,0.00,,---,0.00,VWS V14.01,2013-03-09 16:45:00,
2013-03-09 11:50:00,44.3,27.3,30.32,South,178,0.0,1.0,51,0.00,,---,0.00,VWS V14.01,2013-03-09 16:50:00,
2013-03-09 11:55:00,44.7,26.2,30.31,South,178,0.0,0.0,48,0.00,,---,0.00,VWS V14.01,2013-03-09 16:55:00,
2013-03-09 12:00:00,45.3,28.7,30.31,SSE,166,4.0,4.0,52,0.00,,---,0.00,VWS V14.01,2013-03-09 17:00:00,
2013-03-09 12:05:00,45.5,29.4,30.31,SSW,194,4.0,8.0,53,0.00,,---,0.00,VWS V14.01,2013-03-09 17:05:00,
2013-03-09 12:10:00,45.2,28.6,30.31,South,190,3.0,7.0,52,0.00,,---,0.00,VWS V14.01,2013-03-09 17:10:00,
2013-03-09 12:15:00,46.0,28.9,30.31,South,176,0.0,6.0,51,0.00,,---,0.00,VWS V14.01,2013-03-09 17:15:00,
2013-03-09 12:20:00,45.8,29.2,30.30,SSW,203,5.0,8.0,52,0.00,,---,0.00,VWS V14.01,2013-03-09 17:20:00,
2013-03-09 12:25:00,45.8,29.2,30.30,SSW,195,1.0,4.0,52,0.00,,---,0.00,VWS V14.01,2013-03-09 17:25:00,
2013-03-09 12:30:00,46.3,29.2,30.30,SSE,148,4.0,8.0,51,0.00,,---,0.00,VWS V14.01,2013-03-09 17:30:00,
2013-03-09 12:35:00,46.3,28.7,30.30,SSE,150,1.0,6.0,50,0.00,,---,0.00,VWS V14.01,2013-03-09 17:35:00,
2013-03-09 12:40:00,46.9,28.8,30.30,SSE,150,0.0,5.0,49,0.00,,---,0.00,VWS V14.01,2013-03-09 17:40:00,
2013-03-09 12:45:00,47.1,28.9,30.29,South,186,2.0,6.0,49,0.00,,---,0.00,VWS V14.01,2013-03-09 17:45:00,
2013-03-09 12:50:00,47.0,28.3,30.29,SSE,153,4.0,6.0,48,0.00,,---,0.00,VWS V14.01,2013-03-09 17:50:00,
2013-03-09 12:55:00,47.0,28.3,30.29,South,173,0.0,6.0,48,0.00,,---,0.00,VWS V14.01,2013-03-09 17:55:00,
2013-03-09 13:00:00,47.1,27.4,30.28,South,173,0.0,5.0,46,0.00,,---,0.00,VWS V14.01,2013-03-09 18:00:00,
2013-03-09 13:05:00,47.4,26.0,30.28,South,171,0.0,5.0,43,0.00,,---,0.00,VWS V14.01,2013-03-09 18:05:00,
2013-03-09 13:10:00,47.9,27.0,30.28,SSE,167,4.0,5.0,44,0.00,,---,0.00,VWS V14.01,2013-03-09 18:10:00,
2013-03-09 13:15:00,48.0,26.6,30.28,SSE,167,2.0,4.0,43,0.00,,---,0.00,VWS V14.01,2013-03-09 18:15:00,
2013-03-09 13:20:00,48.2,27.3,30.28,SE,146,5.0,10.0,44,0.00,,---,0.00,VWS V14.01,2013-03-09 18:20:00,
2013-03-09 13:25:00,48.5,26.5,30.28,SSE,156,5.0,6.0,42,0.00,,---,0.00,VWS V14.01,2013-03-09 18:25:00,
2013-03-09 13:30:00,48.7,27.2,30.27,SSE,147,6.0,7.0,43,0.00,,---,0.00,VWS V14.01,2013-03-09 18:30:00,
2013-03-09 13:35:00,48.9,26.8,30.27,SSE,161,2.0,5.0,42,0.00,,---,0.00,VWS V14.01,2013-03-09 18:35:00,
2013-03-09 13:40:00,49.2,25.9,30.27,South,185,0.0,6.0,40,0.00,,---,0.00,VWS V14.01,2013-03-09 18:40:00,
2013-03-09 13:45:00,49.1,27.0,30.27,SE,144,6.0,7.0,42,0.00,,---,0.00,VWS V14.01,2013-03-09 18:45:00,
2013-03-09 13:50:00,49.4,27.3,30.27,SSE,168,5.0,6.0,42,0.00,,---,0.00,VWS V14.01,2013-03-09 18:50:00,
2013-03-09 13:55:00,49.4,27.3,30.26,SSE,155,4.0,8.0,42,0.00,,---,0.00,VWS V14.01,2013-03-09 18:55:00,
2013-03-09 14:00:00,49.5,27.4,30.26,SSE,158,2.0,6.0,42,0.00,,---,0.00,VWS V14.01,2013-03-09 19:00:00,
2013-03-09 14:05:00,49.8,24.6,30.26,SSE,159,0.0,5.0,37,0.00,,---,0.00,VWS V14.01,2013-03-09 19:05:00,
2013-03-09 14:10:00,50.0,25.4,30.26,SSE,157,5.0,5.0,38,0.00,,---,0.00,VWS V14.01,2013-03-09 19:10:00,
2013-03-09 14:15:00,50.3,26.3,30.26,SSE,157,5.0,5.0,39,0.00,,---,0.00,VWS V14.01,2013-03-09 19:15:00,
2013-03-09 14:20:00,50.3,24.4,30.26,SSE,147,0.0,5.0,36,0.00,,---,0.00,VWS V14.01,2013-03-09 19:20:00,
2013-03-09 14:25:00,50.4,23.1,30.26,SSE,147,1.0,4.0,34,0.00,,---,0.00,VWS V14.01,2013-03-09 19:25:00,
2013-03-09 14:30:00,50.6,26.6,30.26,SE,146,0.0,5.0,39,0.00,,---,0.00,VWS V14.01,2013-03-09 19:30:00,
2013-03-09 14:35:00,50.8,26.1,30.26,SSE,153,4.0,7.0,38,0.00,,---,0.00,VWS V14.01,2013-03-09 19:35:00,
2013-03-09 14:40:00,50.6,25.3,30.26,SSE,149,4.0,7.0,37,0.00,,---,0.00,VWS V14.01,2013-03-09 19:40:00,
2013-03-09 14:45:00,50.8,26.1,30.26,SSW,209,4.0,6.0,38,0.00,,---,0.00,VWS V14.01,2013-03-09 19:45:00,
2013-03-09 14:50:00,50.6,26.0,30.26,South,180,5.0,6.0,38,0.00,,---,0.00,VWS V14.01,2013-03-09 19:50:00,
2013-03-09 14:55:00,50.7,26.0,30.26,SE,146,2.0,7.0,38,0.00,,---,0.00,VWS V14.01,2013-03-09 19:55:00,
2013-03-09 15:00:00,50.7,27.3,30.26,South,185,0.0,3.0,40,0.00,,---,0.00,VWS V14.01,2013-03-09 20:00:00,
2013-03-09 15:05:00,50.9,27.5,30.25,SSE,153,6.0,7.0,40,0.00,,---,0.00,VWS V14.01,2013-03-09 20:05:00,
2013-03-09 15:10:00,51.0,28.1,30.25,SSW,200,4.0,6.0,41,0.00,,---,0.00,VWS V14.01,2013-03-09 20:10:00,
2013-03-09 15:15:00,51.1,28.2,30.25,South,171,4.0,8.0,41,0.00,,---,0.00,VWS V14.01,2013-03-09 20:15:00,
2013-03-09 15:20:00,50.8,28.0,30.25,South,178,2.0,6.0,41,0.00,,---,0.00,VWS V14.01,2013-03-09 20:20:00,
2013-03-09 15:25:00,50.8,27.4,30.25,South,186,2.0,6.0,40,0.00,,---,0.00,VWS V14.01,2013-03-09 20:25:00,
2013-03-09 15:30:00,50.8,27.4,30.24,South,174,6.0,8.0,40,0.00,,---,0.00,VWS V14.01,2013-03-09 20:30:00,
2013-03-09 15:35:00,50.6,26.6,30.24,South,175,2.0,9.0,39,0.00,,---,0.00,VWS V14.01,2013-03-09 20:35:00,
2013-03-09 15:40:00,50.5,27.1,30.25,South,172,4.0,5.0,40,0.00,,---,0.00,VWS V14.01,2013-03-09 20:40:00,
2013-03-09 15:45:00,50.6,27.8,30.25,SSW,213,0.0,6.0,41,0.00,,---,0.00,VWS V14.01,2013-03-09 20:45:00,
2013-03-09 15:50:00,50.8,28.0,30.24,South,182,2.0,7.0,41,0.00,,---,0.00,VWS V14.01,2013-03-09 20:50:00,
2013-03-09 15:55:00,50.8,26.8,30.25,SE,145,5.0,7.0,39,0.00,,---,0.00,VWS V14.01,2013-03-09 20:55:00,
2013-03-09 16:00:00,50.6,26.0,30.25,SSE,157,2.0,6.0,38,0.00,,---,0.00,VWS V14.01,2013-03-09 21:00:00,
2013-03-09 16:05:00,50.5,27.1,30.25,SSE,153,6.0,7.0,40,0.00,,---,0.00,VWS V14.01,2013-03-09 21:05:00,
2013-03-09 16:10:00,50.2,26.8,30.24,SSE,152,2.0,6.0,40,0.00,,---,0.00,VWS V14.01,2013-03-09 21:10:00,
2013-03-09 16:15:00,50.1,27.3,30.24,SSE,152,4.0,5.0,41,0.00,,---,0.00,VWS V14.01,2013-03-09 21:15:00,
2013-03-09 16:20:00,50.2,26.8,30.24,SSE,152,5.0,5.0,40,0.00,,---,0.00,VWS V14.01,2013-03-09 21:20:00,
2013-03-09 16:25:00,50.7,27.3,30.24,SSE,152,1.0,4.0,40,0.00,,---,0.00,VWS V14.01,2013-03-09 21:25:00,
2013-03-09 16:30:00,51.1,26.4,30.24,SSE,153,2.0,4.0,38,0.00,,---,0.00,VWS V14.01,2013-03-09 21:30:00,
2013-03-09 16:35:00,51.3,26.6,30.24,SSE,153,0.0,4.0,38,0.00,,---,0.00,VWS V14.01,2013-03-09 21:35:00,
2013-03-09 16:40:00,51.5,26.8,30.24,SSE,153,0.0,4.0,38,0.00,,---,0.00,VWS V14.01,2013-03-09 21:40:00,
2013-03-09 16:45:00,51.7,26.9,30.24,SSE,153,1.0,5.0,38,0.00,,---,0.00,VWS V14.01,2013-03-09 21:45:00,
2013-03-09 16:50:00,51.8,27.6,30.23,SSE,153,0.0,4.0,39,0.00,,---,0.00,VWS V14.01,2013-03-09 21:50:00,
2013-03-09 16:55:00,51.5,28.0,30.23,SSE,154,0.0,5.0,40,0.00,,---,0.00,VWS V14.01,2013-03-09 21:55:00,
2013-03-09 17:00:00,51.7,28.2,30.23,South,177,1.0,6.0,40,0.00,,---,0.00,VWS V14.01,2013-03-09 22:00:00,
2013-03-09 17:05:00,51.7,28.2,30.23,South,177,2.0,5.0,40,0.00,,---,0.00,VWS V14.01,2013-03-09 22:05:00,
2013-03-09 17:10:00,51.7,27.6,30.23,South,180,4.0,5.0,39,0.00,,---,0.00,VWS V14.01,2013-03-09 22:10:00,
2013-03-09 17:15:00,51.4,27.9,30.23,South,179,0.0,1.0,40,0.00,,---,0.00,VWS V14.01,2013-03-09 22:15:00,
2013-03-09 17:20:00,51.3,27.8,30.23,South,180,0.0,3.0,40,0.00,,---,0.00,VWS V14.01,2013-03-09 22:20:00,
2013-03-09 17:25:00,51.2,27.1,30.23,South,180,2.0,5.0,39,0.00,,---,0.00,VWS V14.01,2013-03-09 22:25:00,
2013-03-09 17:30:00,50.9,27.5,30.23,South,180,0.0,1.0,40,0.00,,---,0.00,VWS V14.01,2013-03-09 22:30:00,
2013-03-09 17:35:00,50.7,26.7,30.23,South,180,2.0,3.0,39,0.00,,---,0.00,VWS V14.01,2013-03-09 22:35:00,
2013-03-09 17:40:00,50.5,27.7,30.23,South,180,2.0,2.0,41,0.00,,---,0.00,VWS V14.01,2013-03-09 22:40:00,
2013-03-09 17:45:00,49.7,27.6,30.23,South,190,4.0,4.0,42,0.00,,---,0.00,VWS V14.01,2013-03-09 22:45:00,
2013-03-09 17:50:00,49.2,27.7,30.23,SSW,194,0.0,4.0,43,0.00,,---,0.00,VWS V14.01,2013-03-09 22:50:00,
2013-03-09 17:55:00,48.7,27.2,30.23,SSW,194,0.0,0.0,43,0.00,,---,0.00,VWS V14.01,2013-03-09 22:55:00,
2013-03-09 18:00:00,48.3,27.4,30.24,SSW,194,0.0,0.0,44,0.00,,---,0.00,VWS V14.01,2013-03-09 23:00:00,
2013-03-09 18:05:00,47.4,28.7,30.24,SSW,194,0.0,0.0,48,0.00,,---,0.00,VWS V14.01,2013-03-09 23:05:00,
2013-03-09 18:10:00,46.1,29.5,30.24,SSW,194,0.0,0.0,52,0.00,,---,0.00,VWS V14.01,2013-03-09 23:10:00,
2013-03-09 18:15:00,44.6,30.8,30.24,SSW,194,0.0,0.0,58,0.00,,---,0.00,VWS V14.01,2013-03-09 23:15:00,
2013-03-09 18:20:00,43.8,29.6,30.24,SSW,194,0.0,0.0,57,0.00,,---,0.00,VWS V14.01,2013-03-09 23:20:00,
2013-03-09 18:25:00,43.9,29.7,30.24,SSW,194,0.0,0.0,57,0.00,,---,0.00,VWS V14.01,2013-03-09 23:25:00,
2013-03-09 18:30:00,43.3,30.0,30.24,SSW,194,0.0,0.0,59,0.00,,---,0.00,VWS V14.01,2013-03-09 23:30:00,
2013-03-09 18:35:00,42.2,29.3,30.24,SSW,194,0.0,0.0,60,0.00,,---,0.00,VWS V14.01,2013-03-09 23:35:00,
2013-03-09 18:40:00,41.8,29.4,30.24,SSW,194,0.0,1.0,61,0.00,,---,0.00,VWS V14.01,2013-03-09 23:40:00,
2013-03-09 18:45:00,41.1,28.3,30.24,SSW,194,2.0,2.0,60,0.00,,---,0.00,VWS V14.01,2013-03-09 23:45:00,
2013-03-09 18:50:00,41.1,28.7,30.24,SSW,194,0.0,0.0,61,0.00,,---,0.00,VWS V14.01,2013-03-09 23:50:00,
2013-03-09 18:55:00,40.8,29.6,30.24,SSW,194,0.0,0.0,64,0.00,,---,0.00,VWS V14.01,2013-03-09 23:55:00,
2013-03-09 19:00:00,40.5,30.8,30.24,SSW,194,0.0,0.0,68,0.00,,---,0.00,VWS V14.01,2013-03-10 00:00:00,
2013-03-09 19:05:00,40.2,31.2,30.24,SSW,194,0.0,1.0,70,0.00,,---,0.00,VWS V14.01,2013-03-10 00:05:00,
2013-03-09 19:10:00,39.6,30.6,30.25,SSW,194,0.0,0.0,70,0.00,,---,0.00,VWS V14.01,2013-03-10 00:10:00,
2013-03-09 19:15:00,38.9,30.7,30.25,SSW,194,0.0,0.0,72,0.00,,---,0.00,VWS V14.01,2013-03-10 00:15:00,
2013-03-09 19:20:00,38.4,30.5,30.25,SSW,194,0.0,1.0,73,0.00,,---,0.00,VWS V14.01,2013-03-10 00:20:00,
2013-03-09 19:25:00,37.9,30.0,30.25,SSW,194,0.0,0.0,73,0.00,,---,0.00,VWS V14.01,2013-03-10 00:25:00,
2013-03-09 19:30:00,37.4,30.2,30.25,SSW,194,0.0,2.0,75,0.00,,---,0.00,VWS V14.01,2013-03-10 00:30:00,
2013-03-09 19:35:00,37.6,30.7,30.25,SSW,194,2.0,2.0,76,0.00,,---,0.00,VWS V14.01,2013-03-10 00:35:00,
2013-03-09 19:40:00,37.5,31.0,30.25,SSW,195,0.0,2.0,77,0.00,,---,0.00,VWS V14.01,2013-03-10 00:40:00,
2013-03-09 19:45:00,37.5,31.0,30.25,SSW,196,0.0,0.0,77,0.00,,---,0.00,VWS V14.01,2013-03-10 00:45:00,
2013-03-09 19:50:00,36.8,30.0,30.25,SSW,196,0.0,0.0,76,0.00,,---,0.00,VWS V14.01,2013-03-10 00:50:00,
2013-03-09 19:55:00,36.3,29.5,30.25,SSW,196,1.0,1.0,76,0.00,,---,0.00,VWS V14.01,2013-03-10 00:55:00,
2013-03-09 20:00:00,36.4,28.9,30.25,SSW,196,0.0,1.0,74,0.00,,---,0.00,VWS V14.01,2013-03-10 01:00:00,
2013-03-09 20:05:00,37.2,29.7,30.25,SSW,196,0.0,2.0,74,0.00,,---,0.00,VWS V14.01,2013-03-10 01:05:00,
2013-03-09 20:10:00,37.0,28.5,30.25,SSW,196,0.0,0.0,71,0.00,,---,0.00,VWS V14.01,2013-03-10 01:10:00,
2013-03-09 20:15:00,35.8,28.0,30.25,SSW,196,0.0,0.0,73,0.00,,---,0.00,VWS V14.01,2013-03-10 01:15:00,
2013-03-09 20:20:00,35.2,28.4,30.26,SSW,196,0.0,0.0,76,0.00,,---,0.00,VWS V14.01,2013-03-10 01:20:00,
2013-03-09 20:25:00,34.8,28.3,30.25,SSW,196,0.0,0.0,77,0.00,,---,0.00,VWS V14.01,2013-03-10 01:25:00,
2013-03-09 20:30:00,35.2,29.7,30.25,SSW,196,0.0,0.0,80,0.00,,---,0.00,VWS V14.01,2013-03-10 01:30:00,
2013-03-09 20:35:00,35.4,30.2,30.26,SSW,196,0.0,0.0,81,0.00,,---,0.00,VWS V14.01,2013-03-10 01:35:00,
2013-03-09 20:40:00,34.9,29.7,30.26,SSW,196,0.0,0.0,81,0.00,,---,0.00,VWS V14.01,2013-03-10 01:40:00,
2013-03-09 20:45:00,34.6,29.7,30.26,SSW,196,2.0,2.0,82,0.00,,---,0.00,VWS V14.01,2013-03-10 01:45:00,
2013-03-09 20:50:00,34.7,29.8,30.26,SSW,196,0.0,0.0,82,0.00,,---,0.00,VWS V14.01,2013-03-10 01:50:00,
2013-03-09 20:55:00,35.1,29.6,30.26,SSW,196,0.0,2.0,80,0.00,,---,0.00,VWS V14.01,2013-03-10 01:55:00,
2013-03-09 21:00:00,34.9,29.4,30.26,SSW,196,0.0,1.0,80,0.00,,---,0.00,VWS V14.01,2013-03-10 02:00:00,
2013-03-09 21:05:00,34.6,29.1,30.27,SSW,196,0.0,0.0,80,0.00,,---,0.00,VWS V14.01,2013-03-10 02:05:00,
2013-03-09 21:10:00,33.8,28.3,30.27,SSW,196,0.0,0.0,80,0.00,,---,0.00,VWS V14.01,2013-03-10 02:10:00,
2013-03-09 21:15:00,34.0,29.1,30.27,SSW,196,0.0,0.0,82,0.00,,---,0.00,VWS V14.01,2013-03-10 02:15:00,
2013-03-09 21:20:00,34.6,29.1,30.27,SSW,196,0.0,2.0,80,0.00,,---,0.00,VWS V14.01,2013-03-10 02:20:00,
2013-03-09 21:25:00,34.9,29.1,30.27,SSW,196,1.0,2.0,79,0.00,,---,0.00,VWS V14.01,2013-03-10 02:25:00,
2013-03-09 21:30:00,35.1,29.3,30.27,SSW,196,0.0,3.0,79,0.00,,---,0.00,VWS V14.01,2013-03-10 02:30:00,
2013-03-09 21:35:00,35.2,29.0,30.27,SSW,196,0.0,0.0,78,0.00,,---,0.00,VWS V14.01,2013-03-10 02:35:00,
2013-03-09 21:40:00,34.9,28.8,30.27,SSW,196,1.0,3.0,78,0.00,,---,0.00,VWS V14.01,2013-03-10 02:40:00,
2013-03-09 21:45:00,34.6,28.8,30.27,SSW,196,0.0,1.0,79,0.00,,---,0.00,VWS V14.01,2013-03-10 02:45:00,
2013-03-09 21:50:00,34.8,29.0,30.27,SSW,195,0.0,3.0,79,0.00,,---,0.00,VWS V14.01,2013-03-10 02:50:00,
2013-03-09 21:55:00,34.2,28.1,30.27,SSE,161,4.0,5.0,78,0.00,,---,0.00,VWS V14.01,2013-03-10 02:55:00,
2013-03-09 22:00:00,34.5,28.7,30.27,SSE,163,2.0,5.0,79,0.00,,---,0.00,VWS V14.01,2013-03-10 03:00:00,
2013-03-09 22:05:00,33.6,27.8,30.27,SSE,163,0.0,0.0,79,0.00,,---,0.00,VWS V14.01,2013-03-10 03:05:00,
2013-03-09 22:10:00,32.6,27.7,30.27,SSE,163,0.0,0.0,82,0.00,,---,0.00,VWS V14.01,2013-03-10 03:10:00,
2013-03-09 22:15:00,32.3,28.0,30.27,SSE,163,0.0,1.0,84,0.00,,---,0.00,VWS V14.01,2013-03-10 03:15:00,
2013-03-09 22:20:00,32.2,28.2,30.27,SSE,163,0.0,4.0,85,0.00,,---,0.00,VWS V14.01,2013-03-10 03:20:00,
2013-03-09 22:25:00,32.1,28.4,30.27,SSE,163,0.0,0.0,86,0.00,,---,0.00,VWS V14.01,2013-03-10 03:25:00,
2013-03-09 22:30:00,32.0,28.3,30.27,SSE,163,0.0,0.0,86,0.00,,---,0.00,VWS V14.01,2013-03-10 03:30:00,
2013-03-09 22:35:00,32.0,28.3,30.27,SSE,163,0.0,1.0,86,0.00,,---,0.00,VWS V14.01,2013-03-10 03:35:00,
2013-03-09 22:40:00,31.9,28.2,30.27,SSE,163,0.0,0.0,86,0.00,,---,0.00,VWS V14.01,2013-03-10 03:40:00,
2013-03-09 22:45:00,31.6,27.9,30.27,SSE,163,0.0,0.0,86,0.00,,---,0.00,VWS V14.01,2013-03-10 03:45:00,
2013-03-09 22:50:00,31.4,27.7,30.27,SSE,163,0.0,0.0,86,0.00,,---,0.00,VWS V14.01,2013-03-10 03:50:00,
2013-03-09 22:55:00,31.3,27.6,30.27,SSE,163,0.0,1.0,86,0.00,,---,0.00,VWS V14.01,2013-03-10 03:55:00,
2013-03-09 23:00:00,31.1,27.7,30.27,SSE,163,0.0,0.0,87,0.00,,---,0.00,VWS V14.01,2013-03-10 04:00:00,
2013-03-09 23:05:00,31.1,27.7,30.26,SSE,163,0.0,0.0,87,0.00,,---,0.00,VWS V14.01,2013-03-10 04:05:00,
2013-03-09 23:10:00,30.9,27.5,30.26,SSE,163,0.0,1.0,87,0.00,,---,0.00,VWS V14.01,2013-03-10 04:10:00,
2013-03-09 23:15:00,30.9,27.5,30.27,SSE,163,0.0,1.0,87,0.00,,---,0.00,VWS V14.01,2013-03-10 04:15:00,
2013-03-09 23:20:00,31.1,27.7,30.27,SSE,163,0.0,0.0,87,0.00,,---,0.00,VWS V14.01,2013-03-10 04:20:00,
2013-03-09 23:25:00,30.7,27.0,30.26,SSE,163,2.0,4.0,86,0.00,,---,0.00,VWS V14.01,2013-03-10 04:25:00,
2013-03-09 23:30:00,30.8,27.4,30.26,SSE,147,2.0,5.0,87,0.00,,---,0.00,VWS V14.01,2013-03-10 04:30:00,
2013-03-09 23:35:00,31.4,27.7,30.27,SSE,150,1.0,5.0,86,0.00,,---,0.00,VWS V14.01,2013-03-10 04:35:00,
2013-03-09 23:40:00,31.7,27.7,30.27,SSE,150,2.0,2.0,85,0.00,,---,0.00,VWS V14.01,2013-03-10 04:40:00,
2013-03-09 23:45:00,31.7,27.1,30.27,SSE,150,2.0,4.0,83,0.00,,---,0.00,VWS V14.01,2013-03-10 04:45:00,
2013-03-09 23:50:00,31.4,27.1,30.27,South,173,2.0,5.0,84,0.00,,---,0.00,VWS V14.01,2013-03-10 04:50:00,
2013-03-09 23:55:00,31.2,27.2,30.27,SSW,192,2.0,4.0,85,0.00,,---,0.00,VWS V14.01,2013-03-10 04:55:00,